createdAt,value
2023-05-18T00:02:16.442Z,4.90
2023-05-18T00:04:50.500Z,4.60
2023-05-18T00:07:23.900Z,4.50
2023-05-18T00:09:57.264Z,4.20
2023-05-18T00:12:30.667Z,4.50
2023-05-18T00:15:04.376Z,4.30
2023-05-18T00:17:37.835Z,4.50
2023-05-18T00:20:12.545Z,4.00
2023-05-18T00:22:48.576Z,4.40
2023-05-18T00:25:22.506Z,4.20
2023-05-18T00:27:56.042Z,4.00
2023-05-18T00:30:30.128Z,4.20
2023-05-18T00:33:03.781Z,4.20
2023-05-18T00:35:37.427Z,4.40
2023-05-18T00:38:12.428Z,4.30
2023-05-18T00:40:46.486Z,4.00
2023-05-18T00:43:20.043Z,4.40
2023-05-18T00:45:53.834Z,4.50
2023-05-18T00:48:27.445Z,4.40
2023-05-18T00:51:02.307Z,4.90
2023-05-18T00:53:37.493Z,4.70
2023-05-18T00:56:12.927Z,4.40
2023-05-18T00:58:48.064Z,4.40
2023-05-18T01:01:24.930Z,4.70
2023-05-18T01:04:02.732Z,4.20
2023-05-18T01:06:41.674Z,4.50
2023-05-18T01:09:16.563Z,4.20
2023-05-18T01:12:06.458Z,4.60
2023-05-18T01:14:50.094Z,5.00
2023-05-18T01:17:38.022Z,4.90
2023-05-18T01:20:25.657Z,4.60
2023-05-18T01:23:41.907Z,4.40
2023-05-18T01:26:25.454Z,4.30
2023-05-18T01:29:01.388Z,4.70
2023-05-18T01:31:35.863Z,4.40
2023-05-18T01:34:09.582Z,4.90
2023-05-18T01:36:43.371Z,4.50
2023-05-18T01:39:17.724Z,4.20
2023-05-18T01:41:57.856Z,4.20
2023-05-18T01:44:38.396Z,3.90
2023-05-18T01:47:16.497Z,4.10
2023-05-18T01:49:58.408Z,4.50
2023-05-18T01:52:34.675Z,4.00
2023-05-18T01:55:11.055Z,3.80
2023-05-18T01:57:46.716Z,4.10
2023-05-18T02:00:23.804Z,3.80
2023-05-18T02:02:57.620Z,3.30
2023-05-18T02:05:31.425Z,3.90
2023-05-18T02:08:05.592Z,4.50
2023-05-18T02:10:39.877Z,3.70
2023-05-18T02:13:14.340Z,4.20
2023-05-18T02:15:48.143Z,3.70
2023-05-18T02:18:22.452Z,4.00
2023-05-18T02:21:01.562Z,3.60
2023-05-18T02:23:35.462Z,3.60
2023-05-18T02:26:09.410Z,3.40
2023-05-18T02:28:42.793Z,3.60
2023-05-18T02:31:16.257Z,4.10
2023-05-18T02:33:49.705Z,3.70
2023-05-18T02:36:23.987Z,4.10
2023-05-18T02:38:57.925Z,3.90
2023-05-18T02:41:31.186Z,3.60
2023-05-18T02:44:07.077Z,4.00
2023-05-18T02:46:40.903Z,3.70
2023-05-18T02:49:14.470Z,3.60
2023-05-18T02:51:48.210Z,3.50
2023-05-18T02:54:22.234Z,3.30
2023-05-18T02:56:57.369Z,4.00
2023-05-18T02:59:39.086Z,3.90
2023-05-18T03:02:14.833Z,3.60
2023-05-18T03:04:54.301Z,4.00
2023-05-18T03:07:28.576Z,3.70
2023-05-18T03:10:03.887Z,3.90
2023-05-18T03:12:38.090Z,4.20
2023-05-18T03:15:14.254Z,3.80
2023-05-18T03:17:48.018Z,3.80
2023-05-18T03:20:22.266Z,3.80
2023-05-18T03:22:56.412Z,3.80
2023-05-18T03:25:33.159Z,3.80
2023-05-18T03:28:08.713Z,3.80
2023-05-18T03:30:42.576Z,3.90
2023-05-18T03:33:16.517Z,3.90
2023-05-18T03:35:52.576Z,3.70
2023-05-18T03:38:26.340Z,3.80
2023-05-18T03:41:05.212Z,3.60
2023-05-18T03:43:39.147Z,3.60
2023-05-18T03:46:13.839Z,3.90
2023-05-18T03:48:47.493Z,3.50
2023-05-18T03:51:24.141Z,3.50
2023-05-18T03:53:57.712Z,3.60
2023-05-18T03:56:31.850Z,3.70
2023-05-18T03:59:05.304Z,3.60
2023-05-18T04:01:42.471Z,3.60
2023-05-18T04:04:18.777Z,3.20
2023-05-18T04:06:53.092Z,3.40
2023-05-18T04:09:28.495Z,3.80
2023-05-18T04:12:03.415Z,3.50
2023-05-18T04:14:38.045Z,2.90
2023-05-18T04:17:11.505Z,3.00
2023-05-18T04:19:44.883Z,2.70
2023-05-18T04:22:20.392Z,3.00
2023-05-18T04:24:57.647Z,3.00
2023-05-18T04:27:31.071Z,2.70
2023-05-18T04:30:04.579Z,2.90
2023-05-18T04:32:38.399Z,2.70
2023-05-18T04:35:13.149Z,2.60
2023-05-18T04:37:46.864Z,2.70
2023-05-18T04:40:25.757Z,2.70
2023-05-18T04:43:00.993Z,2.60
2023-05-18T04:45:36.869Z,2.20
2023-05-18T04:48:11.175Z,2.60
2023-05-18T04:50:45.976Z,2.70
2023-05-18T04:53:19.670Z,2.60
2023-05-18T04:55:54.863Z,2.20
2023-05-18T04:58:30.374Z,2.30
2023-05-18T05:01:04.808Z,2.40
2023-05-18T05:03:39.480Z,2.30
2023-05-18T05:06:13.884Z,2.20
2023-05-18T05:08:47.223Z,2.60
2023-05-18T05:11:21.735Z,2.40
2023-05-18T05:13:56.373Z,2.10
2023-05-18T05:16:30.207Z,2.50
2023-05-18T05:19:04.662Z,2.30
2023-05-18T05:21:38.270Z,2.30
2023-05-18T05:24:12.114Z,2.10
2023-05-18T05:26:45.647Z,2.70
2023-05-18T05:29:20.015Z,2.60
2023-05-18T05:31:53.690Z,2.80
2023-05-18T05:34:27.283Z,2.70
2023-05-18T05:37:01.330Z,2.30
2023-05-18T05:39:35.209Z,2.40
2023-05-18T05:42:10.149Z,2.50
2023-05-18T05:44:43.603Z,2.40
2023-05-18T05:47:17.174Z,2.30
2023-05-18T05:49:51.541Z,2.60
2023-05-18T05:52:25.091Z,2.20
2023-05-18T05:54:58.848Z,2.90
2023-05-18T05:57:32.929Z,2.90
2023-05-18T06:00:07.572Z,2.60
2023-05-18T06:02:54.241Z,1.90
2023-05-18T06:05:34.413Z,2.10
2023-05-18T06:08:10.310Z,2.50
2023-05-18T06:10:44.618Z,2.10
2023-05-18T06:13:18.612Z,2.00
2023-05-18T06:15:57.408Z,2.30
2023-05-18T06:18:32.482Z,1.80
2023-05-18T06:21:09.886Z,2.40
2023-05-18T06:23:43.477Z,2.00
2023-05-18T06:26:37.147Z,2.20
2023-05-18T06:29:34.312Z,2.20
2023-05-18T06:32:15.654Z,2.40
2023-05-18T06:37:24.716Z,2.00
2023-05-18T06:39:58.307Z,3.20
2023-05-18T06:42:33.237Z,1.70
2023-05-18T06:45:15.387Z,2.80
2023-05-18T06:47:57.304Z,3.50
2023-05-18T06:50:30.811Z,3.70
2023-05-18T06:53:04.687Z,2.20
2023-05-18T06:55:38.175Z,1.70
2023-05-18T06:58:11.804Z,1.70
2023-05-18T07:00:45.737Z,1.50
2023-05-18T07:03:19.802Z,1.60
2023-05-18T07:05:53.303Z,2.40
2023-05-18T07:08:26.553Z,3.90
2023-05-18T07:11:02.700Z,7.80
2023-05-18T07:13:36.022Z,1.90
2023-05-18T07:16:10.010Z,1.80
2023-05-18T07:18:43.657Z,3.00
2023-05-18T07:21:17.183Z,3.30
2023-05-18T07:23:52.763Z,6.30
2023-05-18T07:26:26.576Z,4.80
2023-05-18T07:28:59.908Z,2.70
2023-05-18T07:31:34.090Z,2.00
2023-05-18T07:34:07.541Z,2.20
2023-05-18T07:36:40.888Z,1.60
2023-05-18T07:39:19.507Z,1.40
2023-05-18T07:41:52.999Z,1.60
2023-05-18T07:44:26.824Z,1.90
2023-05-18T07:47:00.667Z,1.90
2023-05-18T07:49:34.321Z,2.10
2023-05-18T07:52:09.552Z,1.80
2023-05-18T07:54:43.248Z,2.10
2023-05-18T07:57:17.345Z,1.80
2023-05-18T07:59:51.076Z,1.90
2023-05-18T08:02:25.183Z,1.70
2023-05-18T08:04:58.559Z,1.50
2023-05-18T08:07:33.695Z,1.40
2023-05-18T08:10:08.018Z,1.80
2023-05-18T08:12:41.429Z,1.80
2023-05-18T08:15:16.662Z,1.70
2023-05-18T08:17:50.848Z,1.60
2023-05-18T08:20:25.814Z,1.90
2023-05-18T08:22:59.329Z,1.50
2023-05-18T08:25:33.233Z,1.70
2023-05-18T08:28:08.230Z,1.60
2023-05-18T08:30:41.598Z,2.00
2023-05-18T08:33:15.080Z,1.90
2023-05-18T08:35:49.514Z,1.60
2023-05-18T08:38:22.824Z,1.60
2023-05-18T08:41:05.363Z,1.50
2023-05-18T08:43:44.054Z,1.40
2023-05-18T08:46:27.632Z,1.30
2023-05-18T08:49:02.903Z,1.60
2023-05-18T08:51:39.146Z,1.60
2023-05-18T08:54:13.308Z,1.80
2023-05-18T08:56:47.974Z,1.80
2023-05-18T08:59:25.433Z,1.70
2023-05-18T09:01:59.853Z,1.70
2023-05-18T09:04:34.948Z,1.60
2023-05-18T09:07:10.574Z,1.60
2023-05-18T09:12:18.448Z,1.60
2023-05-18T09:17:24.682Z,1.80
2023-05-18T09:19:58.645Z,1.70
2023-05-18T09:22:31.800Z,1.80
2023-05-18T09:25:05.524Z,1.70
2023-05-18T09:27:41.816Z,1.90
2023-05-18T09:30:18.982Z,1.70
2023-05-18T09:32:54.623Z,7.10
2023-05-18T09:38:04.669Z,1.70
2023-05-18T09:40:38.167Z,1.50
2023-05-18T09:43:11.840Z,1.70
2023-05-18T09:45:48.758Z,1.50
2023-05-18T09:48:25.251Z,1.40
2023-05-18T09:51:02.139Z,2.10
2023-05-18T09:53:37.577Z,1.60
2023-05-18T09:56:15.473Z,1.90
2023-05-18T09:58:49.676Z,1.60
2023-05-18T10:01:24.018Z,1.50
2023-05-18T10:04:06.947Z,1.70
2023-05-18T10:06:40.486Z,1.70
2023-05-18T10:09:19.822Z,1.60
2023-05-18T10:11:53.746Z,1.80
2023-05-18T10:14:33.825Z,1.70
2023-05-18T10:19:49.937Z,1.70
2023-05-18T10:22:24.890Z,1.40
2023-05-18T10:24:59.263Z,1.40
2023-05-18T10:27:35.993Z,1.90
2023-05-18T10:30:12.067Z,1.70
2023-05-18T10:32:47.211Z,1.80
2023-05-18T10:35:21.998Z,1.90
2023-05-18T10:37:57.785Z,1.80
2023-05-18T10:40:32.262Z,1.70
2023-05-18T10:43:08.737Z,2.10
2023-05-18T10:45:48.078Z,1.70
2023-05-18T10:48:22.866Z,1.90
2023-05-18T10:50:57.889Z,2.00
2023-05-18T10:58:50.271Z,1.60
2023-05-18T11:40:34.831Z,1.50
2023-05-18T12:02:35.850Z,1.70
2023-05-18T12:09:42.929Z,1.90
2023-05-18T12:13:51.204Z,1.70
2023-05-18T12:17:20.531Z,1.30
2023-05-18T12:20:16.795Z,1.70
2023-05-18T12:22:53.399Z,1.40
2023-05-18T12:25:28.870Z,1.70
2023-05-18T12:28:24.731Z,2.10
2023-05-18T12:31:07.563Z,1.50
2023-05-18T12:33:42.292Z,1.30
2023-05-18T12:37:17.436Z,2.00
2023-05-18T12:41:01.358Z,1.40
2023-05-18T12:44:07.968Z,1.70
2023-05-18T12:46:49.661Z,1.20
2023-05-18T12:49:46.642Z,2.20
2023-05-18T12:53:25.743Z,1.60
2023-05-18T13:14:14.639Z,1.30
2023-05-18T13:16:51.978Z,1.40
2023-05-18T13:19:27.644Z,1.40
2023-05-18T13:22:01.441Z,1.10
2023-05-18T13:24:35.014Z,1.20
2023-05-18T13:27:08.866Z,1.40
2023-05-18T13:29:42.507Z,1.50
2023-05-18T13:32:16.773Z,1.40
2023-05-18T13:34:50.229Z,1.50
2023-05-18T13:37:23.556Z,1.40
2023-05-18T13:39:57.083Z,1.40
2023-05-18T13:42:30.797Z,1.50
2023-05-18T13:45:04.324Z,1.40
2023-05-18T13:47:38.219Z,1.10
2023-05-18T13:50:13.478Z,1.40
2023-05-18T13:52:47.881Z,1.40
2023-05-18T13:55:21.368Z,1.60
2023-05-18T13:57:54.835Z,1.30
2023-05-18T14:00:28.760Z,1.60
2023-05-18T14:03:03.066Z,1.40
2023-05-18T14:05:37.157Z,1.40
2023-05-18T14:08:11.610Z,1.70
2023-05-18T14:10:45.897Z,1.60
2023-05-18T14:13:20.850Z,1.80
2023-05-18T14:15:54.790Z,1.30
2023-05-18T14:18:28.345Z,1.60
2023-05-18T14:21:03.829Z,1.40
2023-05-18T14:23:37.543Z,1.50
2023-05-18T14:26:11.343Z,1.60
2023-05-18T14:28:45.047Z,1.50
2023-05-18T14:31:18.560Z,1.80
2023-05-18T14:33:52.110Z,1.60
2023-05-18T14:36:25.902Z,1.60
2023-05-18T14:38:59.434Z,1.60
2023-05-18T14:41:33.497Z,1.70
2023-05-18T14:44:09.029Z,1.50
2023-05-18T14:46:43.809Z,2.00
2023-05-18T14:49:19.697Z,1.40
2023-05-18T14:51:53.155Z,1.90
2023-05-18T14:54:26.610Z,1.80
2023-05-18T14:57:01.622Z,1.80
2023-05-18T14:59:35.166Z,1.90
2023-05-18T15:02:09.600Z,1.60
2023-05-18T15:04:43.056Z,1.90
2023-05-18T15:07:17.057Z,1.70
2023-05-18T15:09:50.662Z,1.60
2023-05-18T15:12:24.701Z,1.50
2023-05-18T15:14:58.791Z,1.50
2023-05-18T15:17:32.542Z,1.90
2023-05-18T15:20:06.741Z,1.60
2023-05-18T15:22:41.695Z,1.50
2023-05-18T15:25:15.184Z,1.50
2023-05-18T15:27:49.282Z,1.50
2023-05-18T15:30:23.259Z,1.40
2023-05-18T15:32:57.592Z,1.70
2023-05-18T15:35:32.403Z,1.30
2023-05-18T15:38:06.592Z,1.80
2023-05-18T15:40:40.586Z,1.50
2023-05-18T15:43:14.629Z,1.70
2023-05-18T15:45:48.371Z,1.50
2023-05-18T15:48:22.155Z,2.00
2023-05-18T15:50:55.715Z,1.90
2023-05-18T15:53:29.344Z,1.60
2023-05-18T15:56:02.958Z,1.90
2023-05-18T15:58:36.534Z,1.70
2023-05-18T16:01:10.378Z,2.00
2023-05-18T16:03:44.508Z,1.60
2023-05-18T16:06:19.205Z,1.80
2023-05-18T16:08:53.292Z,1.70
2023-05-18T16:11:26.698Z,1.80
2023-05-18T16:14:00.799Z,1.60
2023-05-18T16:16:34.814Z,1.60
2023-05-18T16:19:09.116Z,1.70
2023-05-18T16:21:43.136Z,2.00
2023-05-18T16:24:16.671Z,1.70
2023-05-18T16:26:51.279Z,1.70
2023-05-18T16:29:25.545Z,1.90
2023-05-18T16:31:59.571Z,1.70
2023-05-18T16:34:33.073Z,1.90
2023-05-18T16:37:08.329Z,1.70
2023-05-18T16:39:42.403Z,1.80
2023-05-18T16:42:16.010Z,1.80
2023-05-18T16:44:52.145Z,1.70
2023-05-18T16:47:27.864Z,1.80
2023-05-18T16:50:03.110Z,2.00
2023-05-18T16:52:37.383Z,1.60
2023-05-18T16:55:12.919Z,1.80
2023-05-18T16:57:46.697Z,2.00
2023-05-18T17:00:22.060Z,1.90
2023-05-18T17:02:56.548Z,1.90
2023-05-18T17:05:30.856Z,2.60
2023-05-18T17:08:04.863Z,2.20
2023-05-18T17:10:38.500Z,1.90
2023-05-18T17:13:12.025Z,1.70
2023-05-18T17:15:45.998Z,1.50
2023-05-18T17:18:19.384Z,1.70
2023-05-18T17:20:53.063Z,1.70
2023-05-18T17:23:28.346Z,1.80
2023-05-18T17:26:06.623Z,2.00
2023-05-18T17:28:40.678Z,1.70
2023-05-18T17:31:15.795Z,2.30
2023-05-18T17:33:49.897Z,2.10
2023-05-18T17:36:23.771Z,1.90
2023-05-18T17:38:57.785Z,1.60
2023-05-18T17:41:31.375Z,2.00
2023-05-18T17:44:05.080Z,1.50
2023-05-18T17:46:38.722Z,1.50
2023-05-18T17:49:12.943Z,2.10
2023-05-18T17:51:47.533Z,2.00
2023-05-18T17:54:23.250Z,2.10
2023-05-18T17:59:30.400Z,1.90
2023-05-18T18:02:04.178Z,2.00
2023-05-18T18:04:38.342Z,2.30
2023-05-18T18:07:12.156Z,2.30
2023-05-18T18:09:46.684Z,2.30
2023-05-18T18:12:20.549Z,2.70
2023-05-18T18:14:54.112Z,2.90
2023-05-18T18:17:28.520Z,2.90
2023-05-18T18:20:02.465Z,3.00
2023-05-18T18:22:36.293Z,2.40
2023-05-18T18:25:10.626Z,3.00
2023-05-18T18:27:44.324Z,2.90
2023-05-18T18:30:18.666Z,2.50
2023-05-18T18:32:52.657Z,2.50
2023-05-18T18:35:26.461Z,3.10
2023-05-18T18:38:00.112Z,2.80
2023-05-18T18:40:34.347Z,3.00
2023-05-18T18:43:08.926Z,2.50
2023-05-18T18:45:42.496Z,2.90
2023-05-18T18:48:16.267Z,2.50
2023-05-18T18:50:49.650Z,2.80
2023-05-18T18:53:24.134Z,2.80
2023-05-18T18:56:00.294Z,2.70
2023-05-18T18:58:33.968Z,2.70
2023-05-18T19:01:07.861Z,2.90
2023-05-18T19:03:41.658Z,3.20
2023-05-18T19:06:17.786Z,2.90
2023-05-18T19:08:52.527Z,2.60
2023-05-18T19:11:27.073Z,3.00
2023-05-18T19:14:01.572Z,2.60
2023-05-18T19:16:35.625Z,3.10
2023-05-18T19:19:10.149Z,3.20
2023-05-18T19:21:46.975Z,2.90
2023-05-18T19:24:21.004Z,2.60
2023-05-18T19:26:54.565Z,3.10
2023-05-18T19:29:28.357Z,2.70
2023-05-18T19:32:02.693Z,2.80
2023-05-18T19:34:36.415Z,2.80
2023-05-18T19:37:10.529Z,3.00
2023-05-18T19:39:46.911Z,3.10
2023-05-18T19:42:23.654Z,3.30
2023-05-18T19:44:58.325Z,3.30
2023-05-18T19:47:33.409Z,3.00
2023-05-18T19:50:08.462Z,2.90
2023-05-18T19:52:43.581Z,3.00
2023-05-18T19:55:22.298Z,3.70
2023-05-18T19:57:56.929Z,3.10
2023-05-18T20:00:32.838Z,2.80
2023-05-18T20:03:09.582Z,3.30
2023-05-18T20:05:44.211Z,3.10
2023-05-18T20:08:18.748Z,3.00
2023-05-18T20:10:54.275Z,3.60
2023-05-18T20:13:27.963Z,3.80
2023-05-18T20:16:03.934Z,4.20
2023-05-18T20:18:38.079Z,3.30
2023-05-18T20:21:14.049Z,3.30
2023-05-18T20:23:47.826Z,3.50
2023-05-18T20:26:22.938Z,3.30
2023-05-18T20:28:57.633Z,3.10
2023-05-18T20:31:31.862Z,3.20
2023-05-18T20:34:07.212Z,3.70
2023-05-18T20:36:40.790Z,3.60
2023-05-18T20:39:14.931Z,4.00
2023-05-18T20:41:51.805Z,4.00
2023-05-18T20:46:58.089Z,3.70
2023-05-18T20:49:32.228Z,4.40
2023-05-18T20:52:06.112Z,4.10
2023-05-18T20:54:40.404Z,4.80
2023-05-18T20:57:14.600Z,4.60
2023-05-18T20:59:48.335Z,4.80
2023-05-18T21:02:22.044Z,4.90
2023-05-18T21:04:58.091Z,5.20
2023-05-18T21:07:32.310Z,4.60
2023-05-18T21:10:06.512Z,5.20
2023-05-18T21:12:40.298Z,4.80
2023-05-18T21:15:14.627Z,5.10
2023-05-18T21:17:48.256Z,5.10
2023-05-18T21:20:21.793Z,4.70
2023-05-18T21:22:55.197Z,4.30
2023-05-18T21:25:28.585Z,4.40
2023-05-18T21:28:02.394Z,4.40
2023-05-18T21:30:35.588Z,4.10
2023-05-18T21:33:09.209Z,3.90
2023-05-18T21:35:42.952Z,4.30
2023-05-18T21:38:16.424Z,4.40
2023-05-18T21:40:49.550Z,4.60
2023-05-18T21:43:22.865Z,4.10
2023-05-18T21:45:56.196Z,4.20
2023-05-18T21:48:29.740Z,4.60
2023-05-18T21:51:04.423Z,4.50
2023-05-18T21:53:37.411Z,4.30
2023-05-18T21:56:11.135Z,4.10
2023-05-18T21:58:44.332Z,4.30
2023-05-18T22:01:20.001Z,4.20
2023-05-18T22:03:54.114Z,4.20
2023-05-18T22:06:27.663Z,4.60
2023-05-18T22:09:01.168Z,4.30
2023-05-18T22:11:34.636Z,4.00
2023-05-18T22:14:08.636Z,3.90
2023-05-18T22:16:42.102Z,3.90
2023-05-18T22:19:15.700Z,4.00
2023-05-18T22:21:49.563Z,4.10
2023-05-18T22:24:22.873Z,3.90
2023-05-18T22:26:56.599Z,3.90
2023-05-18T22:29:30.236Z,4.00
2023-05-18T22:32:03.663Z,3.90
2023-05-18T22:34:37.065Z,3.90
2023-05-18T22:37:10.739Z,4.60
2023-05-18T22:39:44.850Z,4.70
2023-05-18T22:42:18.904Z,5.70
2023-05-18T22:44:52.484Z,5.90
2023-05-18T22:47:28.708Z,5.90
2023-05-18T22:50:02.215Z,5.60
2023-05-18T22:52:37.002Z,5.80
2023-05-18T22:55:13.717Z,4.50
2023-05-18T23:00:19.668Z,4.20
2023-05-18T23:02:53.820Z,4.70
2023-05-18T23:05:27.996Z,4.40
2023-05-18T23:08:02.984Z,5.60
2023-05-18T23:10:36.786Z,4.70
2023-05-18T23:13:10.298Z,4.70
2023-05-18T23:15:44.023Z,4.90
2023-05-18T23:18:17.297Z,5.20
2023-05-18T23:20:55.899Z,5.30
2023-05-18T23:23:29.313Z,5.00
2023-05-18T23:26:03.266Z,5.00
2023-05-18T23:28:37.151Z,5.30
2023-05-18T23:31:10.699Z,5.40
2023-05-18T23:33:45.256Z,4.80
2023-05-18T23:36:21.658Z,5.40
2023-05-18T23:38:56.774Z,5.00
2023-05-18T23:41:31.987Z,6.00
2023-05-18T23:44:06.785Z,9.00
2023-05-18T23:46:41.316Z,7.50
2023-05-18T23:49:15.669Z,5.80
2023-05-18T23:51:53.085Z,5.20
2023-05-18T23:54:27.612Z,5.40
2023-05-18T23:57:03.505Z,5.20
2023-05-18T23:59:38.431Z,5.20
